createdAt,value
2017-11-09T00:00:33.930Z,79.12
2017-11-09T00:03:01.518Z,94.15
2017-11-09T00:05:34.859Z,81.20
2017-11-09T00:08:02.466Z,92.75
2017-11-09T00:10:30.075Z,89.85
2017-11-09T00:12:58.401Z,87.50
2017-11-09T00:15:25.977Z,85.70
2017-11-09T00:17:53.581Z,88.20
2017-11-09T00:20:21.165Z,92.05
2017-11-09T00:22:48.766Z,91.15
2017-11-09T00:25:16.356Z,89.62
2017-11-09T00:27:44.743Z,89.32
2017-11-09T00:30:13.128Z,94.47
2017-11-09T00:32:41.501Z,100.80
2017-11-09T00:35:10.184Z,92.43
2017-11-09T00:37:38.664Z,87.30
2017-11-09T00:40:06.229Z,98.03
2017-11-09T00:42:34.585Z,81.25
2017-11-09T00:45:02.271Z,89.55
2017-11-09T00:47:29.877Z,80.15
2017-11-09T00:49:57.661Z,87.07
2017-11-09T00:52:25.273Z,83.80
2017-11-09T00:54:53.687Z,100.87
2017-11-09T00:57:21.285Z,88.70
2017-11-09T00:59:48.879Z,86.45
2017-11-09T01:02:17.237Z,94.03
2017-11-09T01:04:44.823Z,91.67
2017-11-09T01:07:13.196Z,94.95
2017-11-09T01:09:40.772Z,84.83
2017-11-09T01:12:09.447Z,84.13
2017-11-09T01:14:37.024Z,87.65
2017-11-09T01:17:05.467Z,88.07
2017-11-09T01:19:33.052Z,100.77
2017-11-09T01:22:00.644Z,95.65
2017-11-09T01:24:28.271Z,91.87
2017-11-09T01:26:56.607Z,81.40
2017-11-09T01:29:24.203Z,89.00
2017-11-09T01:31:52.576Z,86.37
2017-11-09T01:34:20.161Z,106.43
2017-11-09T01:36:47.814Z,102.50
2017-11-09T01:39:15.421Z,101.28
2017-11-09T01:41:43.021Z,100.43
2017-11-09T01:44:10.641Z,99.87
2017-11-09T01:46:38.984Z,99.20
2017-11-09T01:49:06.552Z,95.82
2017-11-09T01:51:34.158Z,96.32
2017-11-09T01:54:01.743Z,88.28
2017-11-09T01:56:29.363Z,98.68
2017-11-09T01:58:57.736Z,108.43
2017-11-09T02:01:26.080Z,103.82
2017-11-09T02:03:53.687Z,95.03
2017-11-09T02:06:21.265Z,100.87
2017-11-09T02:08:48.962Z,96.65
2017-11-09T02:11:16.585Z,98.68
2017-11-09T02:13:44.942Z,105.90
2017-11-09T02:16:13.319Z,111.67
2017-11-09T02:18:40.904Z,93.10
2017-11-09T02:21:08.491Z,85.82
2017-11-09T02:23:36.089Z,102.00
2017-11-09T02:26:03.671Z,102.77
2017-11-09T02:28:32.032Z,109.53
2017-11-09T02:30:59.601Z,109.97
2017-11-09T02:33:27.230Z,107.68
2017-11-09T02:35:54.827Z,95.93
2017-11-09T02:38:22.410Z,102.20
2017-11-09T02:40:50.756Z,99.70
2017-11-09T02:43:18.332Z,105.13
2017-11-09T02:45:46.712Z,109.45
2017-11-09T02:48:14.280Z,103.77
2017-11-09T02:50:41.862Z,107.87
2017-11-09T02:53:10.228Z,96.80
2017-11-09T02:55:38.706Z,103.90
2017-11-09T02:58:06.283Z,107.20
2017-11-09T03:00:34.615Z,104.95
2017-11-09T03:03:02.229Z,98.62
2017-11-09T03:05:30.590Z,97.97
2017-11-09T03:07:58.352Z,102.55
2017-11-09T03:10:26.688Z,104.37
2017-11-09T03:12:54.276Z,104.17
2017-11-09T03:15:21.849Z,105.63
2017-11-09T03:17:49.467Z,108.55
2017-11-09T03:20:17.076Z,99.93
2017-11-09T03:22:44.658Z,93.53
2017-11-09T03:25:13.169Z,115.22
2017-11-09T03:27:40.749Z,106.10
2017-11-09T03:30:08.361Z,98.15
2017-11-09T03:32:35.977Z,85.30
2017-11-09T03:35:03.569Z,106.78
2017-11-09T03:37:31.175Z,91.90
2017-11-09T03:39:59.514Z,110.30
2017-11-09T03:42:27.101Z,95.32
2017-11-09T03:44:55.454Z,104.22
2017-11-09T03:47:23.064Z,99.20
2017-11-09T03:49:50.715Z,105.10
2017-11-09T03:52:19.076Z,104.35
2017-11-09T03:54:46.674Z,97.47
2017-11-09T03:57:14.250Z,112.82
2017-11-09T03:59:41.840Z,108.65
2017-11-09T04:02:09.471Z,104.50
2017-11-09T04:04:37.063Z,120.85
2017-11-09T04:07:04.639Z,102.40
2017-11-09T04:09:32.231Z,117.87
2017-11-09T04:12:00.579Z,111.15
2017-11-09T04:14:28.170Z,97.12
2017-11-09T04:16:56.667Z,105.32
2017-11-09T04:19:25.015Z,115.15
2017-11-09T04:21:52.595Z,113.97
2017-11-09T04:24:20.199Z,108.97
2017-11-09T04:26:47.805Z,93.62
2017-11-09T04:29:15.376Z,96.37
2017-11-09T04:31:42.945Z,110.33
2017-11-09T04:34:11.322Z,100.28
2017-11-09T04:36:39.669Z,104.57
2017-11-09T04:39:07.280Z,107.87
2017-11-09T04:41:35.647Z,103.75
2017-11-09T04:44:03.996Z,99.57
2017-11-09T04:46:31.612Z,96.15
2017-11-09T04:48:59.961Z,109.40
2017-11-09T04:51:27.536Z,92.53
2017-11-09T04:53:55.889Z,105.18
2017-11-09T04:56:23.465Z,104.22
2017-11-09T04:58:51.105Z,91.75
2017-11-09T05:01:18.688Z,112.90
2017-11-09T05:03:46.267Z,109.90
2017-11-09T05:06:14.629Z,96.47
2017-11-09T05:08:42.232Z,97.27
2017-11-09T05:11:09.848Z,97.80
2017-11-09T05:13:37.447Z,93.07
2017-11-09T05:16:05.961Z,104.32
2017-11-09T05:18:33.608Z,96.70
2017-11-09T05:21:01.375Z,93.82
2017-11-09T05:23:28.970Z,100.43
2017-11-09T05:25:56.571Z,95.30
2017-11-09T05:28:24.926Z,87.95
2017-11-09T05:30:52.538Z,98.28
2017-11-09T05:33:20.272Z,83.47
2017-11-09T05:35:47.896Z,91.20
2017-11-09T05:38:15.491Z,95.23
2017-11-09T05:40:43.086Z,99.63
2017-11-09T05:43:10.852Z,93.93
2017-11-09T05:45:39.225Z,90.93
2017-11-09T05:48:07.591Z,91.00
2017-11-09T05:50:35.420Z,93.03
2017-11-09T05:53:03.003Z,101.85
2017-11-09T05:55:30.563Z,86.75
2017-11-09T05:57:58.159Z,94.40
2017-11-09T06:00:26.604Z,90.70
2017-11-09T06:02:54.291Z,90.80
2017-11-09T06:05:21.867Z,86.97
2017-11-09T06:07:50.488Z,100.65
2017-11-09T06:10:18.115Z,88.68
2017-11-09T06:12:46.489Z,88.35
2017-11-09T06:15:14.840Z,94.93
2017-11-09T06:17:42.434Z,84.20
2017-11-09T06:20:10.027Z,101.95
2017-11-09T06:22:37.787Z,87.90
2017-11-09T06:25:05.366Z,83.95
2017-11-09T06:27:32.969Z,92.60
2017-11-09T06:30:00.550Z,86.12
2017-11-09T06:32:28.163Z,92.30
2017-11-09T06:34:55.751Z,93.27
2017-11-09T06:37:23.377Z,94.35
2017-11-09T06:39:50.984Z,88.83
2017-11-09T06:42:18.567Z,96.93
2017-11-09T06:44:46.941Z,130.30
2017-11-09T06:47:14.584Z,120.25
2017-11-09T06:49:43.821Z,122.37
2017-11-09T06:52:12.191Z,116.75
2017-11-09T06:54:40.538Z,114.45
2017-11-09T06:57:08.162Z,112.30
2017-11-09T06:59:35.743Z,121.65
2017-11-09T07:02:03.315Z,126.55
2017-11-09T07:04:30.915Z,113.07
2017-11-09T07:06:58.503Z,120.27
2017-11-09T07:09:26.232Z,112.57
2017-11-09T07:11:53.878Z,114.83
2017-11-09T07:14:21.460Z,120.23
2017-11-09T07:16:49.025Z,121.35
2017-11-09T07:19:16.598Z,116.53
2017-11-09T07:21:45.021Z,128.10
2017-11-09T07:24:12.605Z,115.30
2017-11-09T07:26:40.171Z,113.37
2017-11-09T07:29:07.738Z,120.93
2017-11-09T07:31:35.343Z,119.43
2017-11-09T07:34:03.697Z,116.32
2017-11-09T07:36:31.300Z,121.35
2017-11-09T07:38:58.909Z,108.75
2017-11-09T07:41:26.673Z,123.90
2017-11-09T07:43:54.392Z,114.87
2017-11-09T07:46:33.660Z,113.60
2017-11-09T07:49:01.280Z,121.60
2017-11-09T07:51:29.008Z,110.95
2017-11-09T07:53:56.610Z,109.63
2017-11-09T07:56:24.307Z,123.30
2017-11-09T07:58:51.881Z,109.47
2017-11-09T08:01:19.479Z,108.10
2017-11-09T08:03:47.184Z,105.28
2017-11-09T08:06:14.817Z,108.22
2017-11-09T08:08:43.217Z,101.22
2017-11-09T08:11:10.918Z,98.47
2017-11-09T08:13:38.540Z,93.60
2017-11-09T08:16:06.900Z,94.07
2017-11-09T08:18:35.258Z,92.10
2017-11-09T08:21:02.928Z,92.30
2017-11-09T08:23:30.538Z,93.20
2017-11-09T08:26:00.029Z,88.73
2017-11-09T08:28:31.561Z,96.10
2017-11-09T08:31:04.084Z,81.10
2017-11-09T08:33:32.891Z,90.27
2017-11-09T08:36:00.472Z,81.80
2017-11-09T08:38:28.064Z,78.80
2017-11-09T08:40:56.432Z,82.40
2017-11-09T08:43:24.062Z,91.43
2017-11-09T08:45:51.712Z,85.03
2017-11-09T08:48:19.327Z,87.87
2017-11-09T08:50:46.913Z,90.50
2017-11-09T08:53:15.257Z,90.17
2017-11-09T08:55:42.824Z,83.93
2017-11-09T08:58:10.448Z,76.47
2017-11-09T09:00:38.019Z,89.20
2017-11-09T09:03:05.639Z,92.63
2017-11-09T09:05:33.999Z,93.97
2017-11-09T09:08:01.592Z,93.28
2017-11-09T09:10:29.954Z,87.00
2017-11-09T09:12:58.308Z,94.57
2017-11-09T09:15:26.813Z,102.43
2017-11-09T09:17:54.418Z,96.10
2017-11-09T09:20:22.691Z,93.90
2017-11-09T09:22:50.296Z,84.13
2017-11-09T09:25:23.547Z,83.03
2017-11-09T09:27:51.124Z,81.57
2017-11-09T09:30:28.624Z,75.77
2017-11-09T09:33:00.286Z,86.33
2017-11-09T09:35:34.843Z,80.67
2017-11-09T09:38:20.920Z,85.80
2017-11-09T09:40:48.596Z,72.07
2017-11-09T09:43:16.188Z,84.80
2017-11-09T09:45:44.540Z,76.77
2017-11-09T09:48:12.169Z,73.37
2017-11-09T09:50:39.742Z,76.27
2017-11-09T09:53:07.352Z,72.57
2017-11-09T09:55:35.697Z,72.07
2017-11-09T09:58:03.312Z,71.13
2017-11-09T10:00:31.666Z,76.47
2017-11-09T10:02:59.241Z,77.83
2017-11-09T10:05:27.667Z,74.23
2017-11-09T10:07:55.288Z,77.40
2017-11-09T10:10:23.690Z,69.93
2017-11-09T10:12:51.262Z,77.70
2017-11-09T10:15:18.909Z,70.97
2017-11-09T10:17:46.496Z,79.43
2017-11-09T10:20:14.093Z,71.13
2017-11-09T10:22:41.672Z,72.73
2017-11-09T10:25:09.396Z,72.87
2017-11-09T10:27:36.963Z,79.10
2017-11-09T10:30:04.561Z,85.03
2017-11-09T10:32:33.034Z,83.17
2017-11-09T10:35:07.881Z,71.60
2017-11-09T10:37:36.231Z,80.07
2017-11-09T10:40:03.811Z,75.37
2017-11-09T10:42:31.401Z,75.30
2017-11-09T10:44:59.035Z,80.43
2017-11-09T10:47:26.608Z,83.53
2017-11-09T10:49:55.009Z,76.40
2017-11-09T10:52:23.396Z,81.40
2017-11-09T10:54:51.029Z,90.80
2017-11-09T10:57:18.629Z,76.77
2017-11-09T10:59:46.213Z,82.17
2017-11-09T11:02:16.291Z,67.30
2017-11-09T11:04:44.701Z,80.33
2017-11-09T11:07:12.367Z,76.37
2017-11-09T11:09:40.012Z,75.43
2017-11-09T11:12:08.410Z,74.57
2017-11-09T11:14:36.076Z,76.40
2017-11-09T11:17:04.613Z,67.47
2017-11-09T11:19:32.199Z,85.43
2017-11-09T11:22:00.600Z,79.30
2017-11-09T11:24:28.200Z,69.80
2017-11-09T11:26:55.788Z,70.87
2017-11-09T11:29:24.180Z,75.10
2017-11-09T11:31:51.774Z,73.63
2017-11-09T11:34:22.081Z,71.20
2017-11-09T11:36:50.111Z,71.83
2017-11-09T11:39:17.715Z,69.77
2017-11-09T11:41:45.295Z,73.67
2017-11-09T11:44:13.771Z,72.53
2017-11-09T11:46:41.529Z,78.80
2017-11-09T11:49:09.900Z,70.60
2017-11-09T11:51:37.509Z,65.33
2017-11-09T11:54:05.178Z,63.27
2017-11-09T11:56:32.797Z,66.60
2017-11-09T11:59:01.176Z,55.53
2017-11-09T12:01:29.616Z,56.60
2017-11-09T12:03:57.208Z,55.93
2017-11-09T12:06:25.565Z,63.70
2017-11-09T12:08:53.189Z,56.73
2017-11-09T12:11:20.800Z,63.07
2017-11-09T12:13:48.422Z,60.03
2017-11-09T12:16:16.011Z,56.87
2017-11-09T12:18:43.613Z,64.03
2017-11-09T12:21:11.191Z,56.20
2017-11-09T12:23:38.810Z,53.47
2017-11-09T12:26:06.402Z,61.70
2017-11-09T12:28:33.995Z,57.37
2017-11-09T12:31:03.372Z,60.13
2017-11-09T12:33:31.109Z,52.20
2017-11-09T12:36:00.443Z,57.87
2017-11-09T12:38:28.039Z,60.77
2017-11-09T12:40:55.666Z,56.53
2017-11-09T12:43:23.283Z,48.73
2017-11-09T12:45:51.788Z,55.60
2017-11-09T12:48:20.142Z,46.20
2017-11-09T12:50:47.750Z,62.93
2017-11-09T12:53:15.333Z,48.13
2017-11-09T12:55:42.907Z,63.37
2017-11-09T12:58:10.475Z,55.27
2017-11-09T13:00:38.182Z,53.33
2017-11-09T13:03:06.544Z,54.20
2017-11-09T13:05:34.896Z,63.77
2017-11-09T13:08:02.550Z,54.53
2017-11-09T13:10:30.132Z,53.80
2017-11-09T13:12:57.729Z,60.90
2017-11-09T13:15:25.318Z,55.80
2017-11-09T13:17:52.944Z,52.27
2017-11-09T13:20:21.314Z,50.73
2017-11-09T13:22:49.663Z,49.17
2017-11-09T13:25:17.252Z,57.30
2017-11-09T13:27:44.848Z,45.03
2017-11-09T13:30:12.424Z,55.47
2017-11-09T13:32:42.039Z,52.77
2017-11-09T13:35:09.785Z,51.97
2017-11-09T13:37:37.589Z,48.40
2017-11-09T13:40:05.240Z,49.43
2017-11-09T13:42:32.874Z,58.77
2017-11-09T13:45:00.666Z,53.57
2017-11-09T13:47:28.257Z,52.67
2017-11-09T13:49:55.868Z,56.87
2017-11-09T13:52:23.659Z,56.53
2017-11-09T13:54:55.234Z,59.23
2017-11-09T13:57:22.921Z,59.80
2017-11-09T13:59:50.728Z,47.33
2017-11-09T14:02:18.459Z,59.50
2017-11-09T14:04:46.914Z,54.07
2017-11-09T14:07:14.507Z,52.53
2017-11-09T14:09:42.168Z,49.67
2017-11-09T14:12:10.457Z,60.10
2017-11-09T14:14:39.440Z,56.43
2017-11-09T14:17:07.433Z,59.60
2017-11-09T14:19:35.082Z,54.80
2017-11-09T14:22:02.658Z,50.03
2017-11-09T14:24:30.257Z,53.17
2017-11-09T14:26:57.932Z,55.73
2017-11-09T14:29:26.376Z,54.27
2017-11-09T14:31:54.733Z,55.03
2017-11-09T14:34:22.332Z,55.13
2017-11-09T14:36:49.911Z,54.80
2017-11-09T14:39:17.524Z,49.83
2017-11-09T14:41:45.849Z,47.07
2017-11-09T14:44:13.425Z,51.60
2017-11-09T14:46:44.504Z,52.17
2017-11-09T14:49:12.097Z,54.47
2017-11-09T14:51:39.693Z,50.93
2017-11-09T14:54:08.074Z,69.97
2017-11-09T14:56:36.402Z,54.63
2017-11-09T14:59:04.117Z,52.40
2017-11-09T15:01:31.695Z,54.33
2017-11-09T15:04:00.080Z,50.17
2017-11-09T15:06:27.947Z,52.10
2017-11-09T15:08:55.736Z,57.57
2017-11-09T15:11:23.361Z,54.93
2017-11-09T15:13:50.939Z,55.90
2017-11-09T15:16:18.522Z,61.27
2017-11-09T15:18:47.957Z,54.60
2017-11-09T15:21:15.555Z,52.30
2017-11-09T15:23:43.145Z,52.60
2017-11-09T15:26:10.857Z,58.57
2017-11-09T15:28:39.347Z,48.27
2017-11-09T15:31:07.001Z,54.77
2017-11-09T15:33:34.610Z,65.28
2017-11-09T15:36:07.885Z,54.05
2017-11-09T15:38:36.205Z,58.67
2017-11-09T15:41:03.812Z,61.25
2017-11-09T15:43:32.249Z,60.40
2017-11-09T15:45:59.847Z,56.67
2017-11-09T15:48:27.455Z,55.53
2017-11-09T15:50:55.084Z,54.70
2017-11-09T15:53:22.783Z,49.28
2017-11-09T15:55:50.355Z,48.00
2017-11-09T15:58:17.941Z,52.45
2017-11-09T16:00:45.535Z,48.65
2017-11-09T16:03:14.021Z,47.15
2017-11-09T16:05:41.603Z,46.70
2017-11-09T16:08:10.054Z,49.60
2017-11-09T16:10:37.730Z,41.95
2017-11-09T16:13:05.343Z,48.70
2017-11-09T16:15:32.969Z,45.40
2017-11-09T16:18:00.580Z,42.28
2017-11-09T16:20:28.185Z,41.17
2017-11-09T16:22:55.805Z,43.92
2017-11-09T16:25:23.434Z,53.42
2017-11-09T16:27:51.027Z,51.63
2017-11-09T16:30:18.626Z,43.17
2017-11-09T16:32:47.705Z,41.37
2017-11-09T16:35:26.077Z,46.37
2017-11-09T16:37:53.816Z,41.42
2017-11-09T16:40:32.938Z,45.50
2017-11-09T16:43:00.585Z,48.05
2017-11-09T16:45:31.100Z,39.58
2017-11-09T16:47:58.712Z,38.50
2017-11-09T16:50:38.574Z,44.53
2017-11-09T16:53:07.078Z,49.13
2017-11-09T16:55:35.748Z,41.67
2017-11-09T16:58:04.220Z,49.40
2017-11-09T17:00:45.180Z,45.70
2017-11-09T17:03:13.580Z,47.65
2017-11-09T17:05:44.158Z,45.17
2017-11-09T17:08:11.829Z,43.13
2017-11-09T17:10:39.438Z,44.65
2017-11-09T17:13:07.019Z,45.80
2017-11-09T17:15:34.650Z,52.17
2017-11-09T17:18:03.017Z,47.20
2017-11-09T17:20:31.406Z,44.45
2017-11-09T17:22:59.787Z,46.97
2017-11-09T17:25:28.156Z,39.33
2017-11-09T17:27:55.752Z,49.45
2017-11-09T17:30:23.349Z,41.88
2017-11-09T17:32:50.922Z,50.67
2017-11-09T17:35:18.729Z,45.70
2017-11-09T17:37:47.096Z,40.70
2017-11-09T17:40:18.299Z,45.17
2017-11-09T17:42:50.823Z,41.37
2017-11-09T17:45:21.074Z,48.53
2017-11-09T17:47:48.708Z,42.95
2017-11-09T17:50:17.071Z,45.25
2017-11-09T17:52:44.648Z,45.97
2017-11-09T17:55:13.020Z,42.75
2017-11-09T17:57:40.653Z,44.05
2017-11-09T18:00:14.445Z,41.47
2017-11-09T18:02:42.044Z,47.33
2017-11-09T18:05:10.522Z,49.20
2017-11-09T18:07:38.326Z,45.60
2017-11-09T18:10:05.963Z,49.83
2017-11-09T18:12:33.532Z,51.58
2017-11-09T18:15:01.119Z,49.15
2017-11-09T18:17:29.578Z,52.20
2017-11-09T18:19:58.191Z,44.88
2017-11-09T18:22:27.649Z,59.60
2017-11-09T18:24:55.272Z,45.95
2017-11-09T18:27:22.871Z,52.62
2017-11-09T18:29:50.500Z,54.60
2017-11-09T18:32:18.188Z,46.50
2017-11-09T18:34:45.775Z,44.13
2017-11-09T18:37:13.379Z,52.35
2017-11-09T18:39:40.983Z,49.45
2017-11-09T18:42:08.571Z,43.97
2017-11-09T18:44:36.227Z,52.67
2017-11-09T18:47:03.860Z,42.88
2017-11-09T18:49:31.474Z,42.05
2017-11-09T18:51:59.211Z,42.97
2017-11-09T18:54:26.843Z,41.00
2017-11-09T18:56:54.574Z,44.95
2017-11-09T18:59:23.797Z,44.67
2017-11-09T19:01:56.079Z,43.95
2017-11-09T19:04:23.737Z,42.88
2017-11-09T19:06:51.364Z,45.60
2017-11-09T19:09:19.527Z,39.28
2017-11-09T19:11:48.552Z,41.55
2017-11-09T19:14:16.947Z,42.67
2017-11-09T19:16:55.065Z,40.08
2017-11-09T19:19:22.736Z,49.38
2017-11-09T19:21:52.174Z,45.05
2017-11-09T19:24:20.587Z,54.42
2017-11-09T19:26:49.638Z,47.90
2017-11-09T19:29:28.804Z,44.10
2017-11-09T19:31:56.510Z,42.20
2017-11-09T19:34:24.152Z,41.40
2017-11-09T19:36:52.241Z,41.42
2017-11-09T19:39:19.847Z,40.65
2017-11-09T19:41:47.485Z,41.13
2017-11-09T19:44:15.076Z,42.50
2017-11-09T19:46:42.749Z,38.08
2017-11-09T19:49:10.352Z,37.20
2017-11-09T19:51:37.995Z,39.80
2017-11-09T19:54:06.371Z,41.90
2017-11-09T19:56:34.013Z,37.38
2017-11-09T19:59:01.613Z,43.42
2017-11-09T20:01:30.142Z,35.80
2017-11-09T20:04:02.816Z,35.38
2017-11-09T20:06:31.555Z,36.30
2017-11-09T20:09:02.689Z,37.45
2017-11-09T20:11:30.352Z,35.95
2017-11-09T20:13:58.941Z,38.13
2017-11-09T20:16:28.546Z,34.47
2017-11-09T20:18:56.254Z,42.83
2017-11-09T20:21:24.217Z,40.00
2017-11-09T20:23:51.845Z,44.30
2017-11-09T20:26:19.497Z,42.72
2017-11-09T20:28:47.332Z,37.42
2017-11-09T20:31:15.049Z,38.03
2017-11-09T20:33:42.744Z,37.08
2017-11-09T20:36:10.596Z,36.03
2017-11-09T20:38:38.492Z,37.25
2017-11-09T20:41:06.413Z,36.85
2017-11-09T20:43:34.121Z,37.80
2017-11-09T20:46:01.741Z,37.70
2017-11-09T20:48:30.635Z,38.50
2017-11-09T20:50:58.321Z,38.58
2017-11-09T20:53:41.569Z,37.90
2017-11-09T20:56:09.184Z,38.17
2017-11-09T20:58:36.793Z,37.15
2017-11-09T21:01:04.405Z,35.10
2017-11-09T21:03:32.158Z,39.60
2017-11-09T21:05:59.779Z,34.92
2017-11-09T21:08:27.369Z,34.58
2017-11-09T21:10:55.133Z,37.10
2017-11-09T21:13:22.734Z,34.53
2017-11-09T21:15:50.344Z,30.60
2017-11-09T21:18:18.036Z,32.53
2017-11-09T21:20:45.619Z,35.63
2017-11-09T21:23:13.428Z,34.55
2017-11-09T21:25:41.024Z,36.10
2017-11-09T21:28:08.658Z,33.33
2017-11-09T21:30:36.272Z,37.53
2017-11-09T21:33:03.877Z,36.28
2017-11-09T21:35:31.520Z,37.08
2017-11-09T21:37:59.898Z,32.45
2017-11-09T21:40:27.596Z,30.58
2017-11-09T21:42:55.233Z,35.53
2017-11-09T21:45:23.699Z,31.45
2017-11-09T21:47:51.292Z,41.60
2017-11-09T21:50:18.911Z,31.85
2017-11-09T21:52:46.506Z,37.30
2017-11-09T21:55:14.840Z,32.60
2017-11-09T21:57:42.447Z,33.97
2017-11-09T22:00:10.810Z,31.30
2017-11-09T22:02:38.451Z,35.85
2017-11-09T22:05:06.067Z,34.20
2017-11-09T22:07:33.744Z,32.38
2017-11-09T22:10:01.620Z,33.22
2017-11-09T22:12:29.263Z,35.38
2017-11-09T22:14:56.867Z,33.50
2017-11-09T22:17:24.488Z,36.13
2017-11-09T22:19:52.121Z,32.97
2017-11-09T22:22:20.558Z,35.13
2017-11-09T22:24:48.172Z,35.20
2017-11-09T22:27:15.971Z,35.28
2017-11-09T22:29:43.599Z,32.80
2017-11-09T22:32:11.267Z,30.58
2017-11-09T22:34:38.844Z,29.92
2017-11-09T22:37:06.435Z,35.65
2017-11-09T22:39:34.043Z,40.70
2017-11-09T22:42:01.652Z,33.22
2017-11-09T22:44:29.236Z,30.77
2017-11-09T22:46:57.616Z,34.47
2017-11-09T22:49:25.973Z,33.47
2017-11-09T22:51:53.639Z,30.35
2017-11-09T22:54:21.207Z,30.50
2017-11-09T22:56:48.905Z,37.13
2017-11-09T22:59:16.492Z,29.15
2017-11-09T23:01:44.123Z,38.08
2017-11-09T23:04:12.472Z,34.53
